sensor_id;sensor_type;location;lat;lon;timestamp;pressure;altitude;pressure_sealevel;temperature;humidity
20620;BME280;10469;42.720;23.252;2023-02-17T00:01:27;95797.13;;;3.38;100.00
20620;BME280;10469;42.720;23.252;2023-02-17T00:03:53;95795.94;;;3.40;100.00
20620;BME280;10469;42.720;23.252;2023-02-17T00:06:23;95789.00;;;3.31;100.00
20620;BME280;10469;42.720;23.252;2023-02-17T00:08:49;95787.56;;;3.20;100.00
20620;BME280;10469;42.720;23.252;2023-02-17T00:11:16;95797.16;;;3.13;100.00
20620;BME280;10469;42.720;23.252;2023-02-17T00:13:41;95782.47;;;3.03;100.00
20620;BME280;10469;42.720;23.252;2023-02-17T00:16:18;95795.53;;;3.04;100.00
20620;BME280;10469;42.720;23.252;2023-02-17T00:18:44;95793.06;;;3.03;100.00
20620;BME280;10469;42.720;23.252;2023-02-17T00:21:15;95786.94;;;2.94;100.00
20620;BME280;10469;42.720;23.252;2023-02-17T00:23:41;95781.28;;;3.05;100.00
20620;BME280;10469;42.720;23.252;2023-02-17T00:26:07;95781.94;;;3.07;100.00
20620;BME280;10469;42.720;23.252;2023-02-17T00:28:33;95780.44;;;3.13;100.00
20620;BME280;10469;42.720;23.252;2023-02-17T00:30:59;95775.47;;;3.01;100.00
20620;BME280;10469;42.720;23.252;2023-02-17T00:33:24;95770.69;;;2.97;100.00
20620;BME280;10469;42.720;23.252;2023-02-17T00:35:49;95766.41;;;2.80;100.00
20620;BME280;10469;42.720;23.252;2023-02-17T00:38:15;95745.56;;;2.68;100.00
20620;BME280;10469;42.720;23.252;2023-02-17T00:40:40;95764.56;;;2.72;100.00
20620;BME280;10469;42.720;23.252;2023-02-17T00:43:06;95753.66;;;2.67;100.00
20620;BME280;10469;42.720;23.252;2023-02-17T00:45:32;95772.03;;;2.52;100.00
20620;BME280;10469;42.720;23.252;2023-02-17T00:47:57;95787.09;;;2.43;100.00
20620;BME280;10469;42.720;23.252;2023-02-17T00:50:23;95776.63;;;2.17;100.00
20620;BME280;10469;42.720;23.252;2023-02-17T00:52:48;95773.66;;;2.29;100.00
20620;BME280;10469;42.720;23.252;2023-02-17T00:55:14;95773.50;;;2.30;100.00
20620;BME280;10469;42.720;23.252;2023-02-17T00:57:39;95773.13;;;2.09;100.00
20620;BME280;10469;42.720;23.252;2023-02-17T01:00:05;95777.28;;;2.28;100.00
20620;BME280;10469;42.720;23.252;2023-02-17T01:02:30;95769.97;;;2.05;100.00
20620;BME280;10469;42.720;23.252;2023-02-17T01:04:56;95768.94;;;1.90;100.00
20620;BME280;10469;42.720;23.252;2023-02-17T01:07:21;95761.00;;;1.90;100.00
20620;BME280;10469;42.720;23.252;2023-02-17T01:09:47;95763.31;;;1.85;100.00
20620;BME280;10469;42.720;23.252;2023-02-17T01:12:12;95737.34;;;1.80;100.00
20620;BME280;10469;42.720;23.252;2023-02-17T01:14:38;95764.13;;;1.85;100.00
20620;BME280;10469;42.720;23.252;2023-02-17T01:17:03;95762.13;;;1.79;100.00
20620;BME280;10469;42.720;23.252;2023-02-17T01:19:29;95755.59;;;1.49;100.00
20620;BME280;10469;42.720;23.252;2023-02-17T01:21:54;95758.81;;;1.69;100.00
20620;BME280;10469;42.720;23.252;2023-02-17T01:24:20;95755.31;;;1.68;100.00
20620;BME280;10469;42.720;23.252;2023-02-17T01:26:45;95749.25;;;1.84;100.00
20620;BME280;10469;42.720;23.252;2023-02-17T01:29:10;95731.50;;;1.68;100.00
20620;BME280;10469;42.720;23.252;2023-02-17T01:31:36;95752.38;;;1.80;100.00
20620;BME280;10469;42.720;23.252;2023-02-17T01:34:02;95750.72;;;1.70;100.00
20620;BME280;10469;42.720;23.252;2023-02-17T01:36:28;95754.69;;;1.74;100.00
20620;BME280;10469;42.720;23.252;2023-02-17T01:38:54;95746.59;;;1.76;100.00
20620;BME280;10469;42.720;23.252;2023-02-17T01:41:22;95754.03;;;1.81;100.00
20620;BME280;10469;42.720;23.252;2023-02-17T01:46:44;95753.03;;;1.73;100.00
20620;BME280;10469;42.720;23.252;2023-02-17T01:49:22;95750.38;;;1.65;100.00
20620;BME280;10469;42.720;23.252;2023-02-17T01:51:52;95764.63;;;1.81;100.00
20620;BME280;10469;42.720;23.252;2023-02-17T01:54:23;95756.38;;;1.92;100.00
20620;BME280;10469;42.720;23.252;2023-02-17T01:56:51;95751.47;;;2.05;100.00
20620;BME280;10469;42.720;23.252;2023-02-17T01:59:20;95748.47;;;2.00;100.00
20620;BME280;10469;42.720;23.252;2023-02-17T02:01:49;95730.97;;;2.23;100.00
20620;BME280;10469;42.720;23.252;2023-02-17T02:04:18;95724.34;;;2.11;100.00
20620;BME280;10469;42.720;23.252;2023-02-17T02:06:45;95742.59;;;1.72;100.00
20620;BME280;10469;42.720;23.252;2023-02-17T02:09:17;95737.19;;;1.73;100.00
20620;BME280;10469;42.720;23.252;2023-02-17T02:11:43;95739.06;;;1.55;100.00
20620;BME280;10469;42.720;23.252;2023-02-17T02:14:09;95723.94;;;1.65;100.00
20620;BME280;10469;42.720;23.252;2023-02-17T02:16:53;95733.03;;;1.71;100.00
20620;BME280;10469;42.720;23.252;2023-02-17T02:25:11;95738.00;;;1.74;100.00
20620;BME280;10469;42.720;23.252;2023-02-17T02:27:50;95725.19;;;1.53;100.00
20620;BME280;10469;42.720;23.252;2023-02-17T02:30:44;95723.09;;;1.65;100.00
20620;BME280;10469;42.720;23.252;2023-02-17T02:33:28;95723.28;;;1.80;100.00
20620;BME280;10469;42.720;23.252;2023-02-17T02:36:03;95716.56;;;2.01;100.00
20620;BME280;10469;42.720;23.252;2023-02-17T02:38:41;95716.75;;;2.08;100.00
20620;BME280;10469;42.720;23.252;2023-02-17T02:41:11;95730.97;;;2.23;100.00
20620;BME280;10469;42.720;23.252;2023-02-17T02:43:38;95730.16;;;2.31;100.00
20620;BME280;10469;42.720;23.252;2023-02-17T02:46:04;95737.59;;;2.19;100.00
20620;BME280;10469;42.720;23.252;2023-02-17T02:48:29;95723.69;;;2.01;100.00
20620;BME280;10469;42.720;23.252;2023-02-17T02:51:08;95724.63;;;1.84;100.00
20620;BME280;10469;42.720;23.252;2023-02-17T02:53:47;95742.63;;;1.80;100.00
20620;BME280;10469;42.720;23.252;2023-02-17T03:01:43;95734.47;;;2.32;100.00
20620;BME280;10469;42.720;23.252;2023-02-17T03:04:18;95736.59;;;2.29;100.00
20620;BME280;10469;42.720;23.252;2023-02-17T03:07:02;95736.94;;;2.25;100.00
20620;BME280;10469;42.720;23.252;2023-02-17T03:09:30;95735.25;;;2.24;100.00
20620;BME280;10469;42.720;23.252;2023-02-17T03:11:57;95737.44;;;2.13;100.00
20620;BME280;10469;42.720;23.252;2023-02-17T03:14:23;95734.91;;;1.87;100.00
20620;BME280;10469;42.720;23.252;2023-02-17T03:16:50;95734.72;;;1.88;100.00
20620;BME280;10469;42.720;23.252;2023-02-17T03:19:18;95720.88;;;2.11;100.00
20620;BME280;10469;42.720;23.252;2023-02-17T03:21:51;95735.53;;;1.89;100.00
20620;BME280;10469;42.720;23.252;2023-02-17T03:24:17;95741.28;;;1.34;100.00
20620;BME280;10469;42.720;23.252;2023-02-17T03:26:43;95749.88;;;1.28;100.00
20620;BME280;10469;42.720;23.252;2023-02-17T03:29:08;95750.06;;;1.00;100.00
20620;BME280;10469;42.720;23.252;2023-02-17T03:31:34;95741.31;;;0.73;100.00
20620;BME280;10469;42.720;23.252;2023-02-17T03:33:59;95743.72;;;0.93;100.00
20620;BME280;10469;42.720;23.252;2023-02-17T03:36:25;95743.56;;;0.94;100.00
20620;BME280;10469;42.720;23.252;2023-02-17T03:38:51;95747.59;;;0.81;100.00
20620;BME280;10469;42.720;23.252;2023-02-17T03:41:16;95746.84;;;0.88;100.00
20620;BME280;10469;42.720;23.252;2023-02-17T03:43:42;95745.09;;;0.97;100.00
20620;BME280;10469;42.720;23.252;2023-02-17T03:46:12;95737.00;;;0.98;100.00
20620;BME280;10469;42.720;23.252;2023-02-17T03:48:39;95750.38;;;0.97;100.00
20620;BME280;10469;42.720;23.252;2023-02-17T03:51:18;95738.34;;;1.03;100.00
20620;BME280;10469;42.720;23.252;2023-02-17T03:53:44;95728.13;;;1.08;100.00
20620;BME280;10469;42.720;23.252;2023-02-17T03:56:11;95727.34;;;1.15;100.00
20620;BME280;10469;42.720;23.252;2023-02-17T03:58:37;95739.91;;;1.13;100.00
20620;BME280;10469;42.720;23.252;2023-02-17T04:01:04;95745.44;;;1.02;100.00
20620;BME280;10469;42.720;23.252;2023-02-17T04:03:30;95745.06;;;1.23;100.00
20620;BME280;10469;42.720;23.252;2023-02-17T04:05:56;95739.78;;;1.23;100.00
20620;BME280;10469;42.720;23.252;2023-02-17T04:08:22;95745.63;;;1.35;100.00
20620;BME280;10469;42.720;23.252;2023-02-17T04:10:52;95741.13;;;1.27;100.00
20620;BME280;10469;42.720;23.252;2023-02-17T04:13:18;95747.44;;;1.34;100.00
20620;BME280;10469;42.720;23.252;2023-02-17T04:15:44;95740.03;;;1.46;100.00
20620;BME280;10469;42.720;23.252;2023-02-17T04:18:09;95741.00;;;1.37;100.00
20620;BME280;10469;42.720;23.252;2023-02-17T04:20:34;95735.25;;;1.49;100.00
20620;BME280;10469;42.720;23.252;2023-02-17T04:23:00;95741.00;;;1.37;100.00
20620;BME280;10469;42.720;23.252;2023-02-17T04:25:25;95738.59;;;1.52;100.00
20620;BME280;10469;42.720;23.252;2023-02-17T04:27:51;95737.38;;;1.46;100.00
20620;BME280;10469;42.720;23.252;2023-02-17T04:30:16;95736.88;;;1.34;100.00
20620;BME280;10469;42.720;23.252;2023-02-17T04:32:42;95740.84;;;1.38;100.00
20620;BME280;10469;42.720;23.252;2023-02-17T04:35:07;95722.06;;;1.15;100.00
20620;BME280;10469;42.720;23.252;2023-02-17T04:37:32;95736.78;;;1.18;100.00
20620;BME280;10469;42.720;23.252;2023-02-17T04:39:58;95749.88;;;1.28;100.00
20620;BME280;10469;42.720;23.252;2023-02-17T04:42:24;95738.13;;;1.22;100.00
20620;BME280;10469;42.720;23.252;2023-02-17T04:44:50;95739.38;;;1.44;100.00
20620;BME280;10469;42.720;23.252;2023-02-17T04:47:16;95734.44;;;1.49;100.00
20620;BME280;10469;42.720;23.252;2023-02-17T04:49:41;95739.06;;;1.47;100.00
20620;BME280;10469;42.720;23.252;2023-02-17T04:52:07;95734.44;;;1.49;100.00
20620;BME280;10469;42.720;23.252;2023-02-17T04:54:32;95724.00;;;1.39;100.00
20620;BME280;10469;42.720;23.252;2023-02-17T04:56:57;95746.88;;;1.57;100.00
20620;BME280;10469;42.720;23.252;2023-02-17T04:59:23;95740.81;;;1.30;100.00
20620;BME280;10469;42.720;23.252;2023-02-17T05:01:48;95730.34;;;1.63;100.00
20620;BME280;10469;42.720;23.252;2023-02-17T05:04:14;95728.25;;;1.74;100.00
20620;BME280;10469;42.720;23.252;2023-02-17T05:06:39;95735.81;;;1.61;100.00
20620;BME280;10469;42.720;23.252;2023-02-17T05:09:05;95742.75;;;1.62;100.00
20620;BME280;10469;42.720;23.252;2023-02-17T05:11:31;95752.16;;;1.22;100.00
20620;BME280;10469;42.720;23.252;2023-02-17T05:13:57;95767.97;;;1.14;100.00
20620;BME280;10469;42.720;23.252;2023-02-17T05:16:22;95763.72;;;1.21;100.00
20620;BME280;10469;42.720;23.252;2023-02-17T05:18:47;95766.41;;;1.30;100.00
20620;BME280;10469;42.720;23.252;2023-02-17T05:21:13;95770.75;;;1.39;100.00
20620;BME280;10469;42.720;23.252;2023-02-17T05:23:38;95781.06;;;0.98;100.00
20620;BME280;10469;42.720;23.252;2023-02-17T05:26:07;95786.69;;;0.77;100.00
20620;BME280;10469;42.720;23.252;2023-02-17T05:28:34;95784.34;;;0.92;100.00
20620;BME280;10469;42.720;23.252;2023-02-17T05:31:00;95786.69;;;1.03;100.00
20620;BME280;10469;42.720;23.252;2023-02-17T05:33:26;95783.13;;;1.38;100.00
20620;BME280;10469;42.720;23.252;2023-02-17T05:35:52;95770.41;;;1.42;100.00
20620;BME280;10469;42.720;23.252;2023-02-17T05:38:17;95792.63;;;1.57;100.00
20620;BME280;10469;42.720;23.252;2023-02-17T05:40:43;95797.69;;;1.85;100.00
20620;BME280;10469;42.720;23.252;2023-02-17T05:43:08;95784.84;;;2.06;100.00
20620;BME280;10469;42.720;23.252;2023-02-17T05:45:33;95797.25;;;2.06;100.00
20620;BME280;10469;42.720;23.252;2023-02-17T05:47:59;95796.78;;;2.18;100.00
20620;BME280;10469;42.720;23.252;2023-02-17T05:50:25;95789.72;;;2.43;100.00
20620;BME280;10469;42.720;23.252;2023-02-17T05:52:50;95804.31;;;2.64;100.00
20620;BME280;10469;42.720;23.252;2023-02-17T05:55:16;95798.84;;;2.90;100.00
20620;BME280;10469;42.720;23.252;2023-02-17T05:57:41;95797.47;;;3.18;100.00
20620;BME280;10469;42.720;23.252;2023-02-17T06:00:07;95796.13;;;3.86;100.00
20620;BME280;10469;42.720;23.252;2023-02-17T06:02:33;95805.03;;;4.33;100.00
20620;BME280;10469;42.720;23.252;2023-02-17T06:04:58;95798.19;;;5.07;100.00
20620;BME280;10469;42.720;23.252;2023-02-17T06:07:23;95796.59;;;5.36;100.00
20620;BME280;10469;42.720;23.252;2023-02-17T06:09:49;95789.16;;;5.90;100.00
20620;BME280;10469;42.720;23.252;2023-02-17T06:12:14;95802.09;;;5.78;100.00
20620;BME280;10469;42.720;23.252;2023-02-17T06:14:40;95788.78;;;6.08;100.00
20620;BME280;10469;42.720;23.252;2023-02-17T06:17:05;95797.03;;;5.39;100.00
20620;BME280;10469;42.720;23.252;2023-02-17T06:19:31;95799.41;;;5.34;100.00
20620;BME280;10469;42.720;23.252;2023-02-17T06:21:56;95802.31;;;5.10;100.00
20620;BME280;10469;42.720;23.252;2023-02-17T06:24:22;95798.44;;;5.50;100.00
20620;BME280;10469;42.720;23.252;2023-02-17T06:26:47;95790.00;;;6.06;100.00
20620;BME280;10469;42.720;23.252;2023-02-17T06:29:13;95799.81;;;6.99;100.00
20620;BME280;10469;42.720;23.252;2023-02-17T06:31:38;95794.38;;;8.39;96.24
20620;BME280;10469;42.720;23.252;2023-02-17T06:34:04;95798.16;;;8.17;90.24
20620;BME280;10469;42.720;23.252;2023-02-17T06:36:29;95781.53;;;9.22;79.12
20620;BME280;10469;42.720;23.252;2023-02-17T06:38:55;95799.63;;;9.67;76.17
20620;BME280;10469;42.720;23.252;2023-02-17T06:41:20;95805.44;;;9.37;74.71
20620;BME280;10469;42.720;23.252;2023-02-17T06:43:45;95806.06;;;9.39;73.34
20620;BME280;10469;42.720;23.252;2023-02-17T06:46:11;95809.72;;;8.85;75.48
20620;BME280;10469;42.720;23.252;2023-02-17T06:48:36;95810.75;;;8.29;76.73
20620;BME280;10469;42.720;23.252;2023-02-17T06:51:02;95812.72;;;8.14;83.22
20620;BME280;10469;42.720;23.252;2023-02-17T06:53:27;95812.41;;;9.18;77.85
20620;BME280;10469;42.720;23.252;2023-02-17T06:55:53;95813.25;;;9.12;77.52
20620;BME280;10469;42.720;23.252;2023-02-17T06:58:18;95812.59;;;8.90;76.70
20620;BME280;10469;42.720;23.252;2023-02-17T07:00:44;95818.19;;;9.55;75.33
20620;BME280;10469;42.720;23.252;2023-02-17T07:03:09;95805.22;;;9.45;77.67
20620;BME280;10469;42.720;23.252;2023-02-17T07:05:35;95800.59;;;11.59;70.65
20620;BME280;10469;42.720;23.252;2023-02-17T07:08:03;95785.63;;;11.19;68.92
20620;BME280;10469;42.720;23.252;2023-02-17T07:10:28;95801.28;;;11.72;68.36
20620;BME280;10469;42.720;23.252;2023-02-17T07:12:54;95803.22;;;12.45;68.05
20620;BME280;10469;42.720;23.252;2023-02-17T07:15:19;95803.25;;;13.36;67.35
20620;BME280;10469;42.720;23.252;2023-02-17T07:17:45;95806.19;;;13.46;65.17
20620;BME280;10469;42.720;23.252;2023-02-17T07:20:11;95807.19;;;13.87;62.17
20620;BME280;10469;42.720;23.252;2023-02-17T07:22:36;95811.84;;;14.26;57.90
20620;BME280;10469;42.720;23.252;2023-02-17T07:25:02;95806.31;;;14.45;55.53
20620;BME280;10469;42.720;23.252;2023-02-17T07:27:28;95803.16;;;14.24;53.34
20620;BME280;10469;42.720;23.252;2023-02-17T07:29:54;95809.00;;;14.33;53.05
20620;BME280;10469;42.720;23.252;2023-02-17T07:32:19;95807.19;;;16.93;46.54
20620;BME280;10469;42.720;23.252;2023-02-17T07:34:45;95810.53;;;17.05;46.40
20620;BME280;10469;42.720;23.252;2023-02-17T07:37:10;95813.47;;;16.16;48.71
20620;BME280;10469;42.720;23.252;2023-02-17T07:39:36;95813.84;;;16.24;45.70
20620;BME280;10469;42.720;23.252;2023-02-17T07:42:01;95818.03;;;16.32;47.25
20620;BME280;10469;42.720;23.252;2023-02-17T07:44:29;95802.69;;;16.21;49.48
20620;BME280;10469;42.720;23.252;2023-02-17T07:46:55;95815.28;;;17.15;45.52
20620;BME280;10469;42.720;23.252;2023-02-17T07:49:20;95817.53;;;16.18;47.42
20620;BME280;10469;42.720;23.252;2023-02-17T07:51:45;95814.31;;;16.60;45.51
20620;BME280;10469;42.720;23.252;2023-02-17T07:54:11;95808.94;;;14.80;48.10
20620;BME280;10469;42.720;23.252;2023-02-17T07:56:37;95816.41;;;15.64;48.69
20620;BME280;10469;42.720;23.252;2023-02-17T07:59:07;95807.81;;;15.84;47.67
20620;BME280;10469;42.720;23.252;2023-02-17T08:01:33;95813.81;;;18.30;43.23
20620;BME280;10469;42.720;23.252;2023-02-17T08:03:58;95798.44;;;21.76;38.39
20620;BME280;10469;42.720;23.252;2023-02-17T08:06:24;95792.69;;;22.65;34.89
20620;BME280;10469;42.720;23.252;2023-02-17T08:08:51;95809.94;;;19.32;36.03
20620;BME280;10469;42.720;23.252;2023-02-17T08:11:35;95801.84;;;19.98;37.22
20620;BME280;10469;42.720;23.252;2023-02-17T08:14:20;95802.69;;;18.79;37.49
20620;BME280;10469;42.720;23.252;2023-02-17T08:16:46;95811.03;;;18.20;38.73
20620;BME280;10469;42.720;23.252;2023-02-17T08:19:12;95819.38;;;16.73;38.03
20620;BME280;10469;42.720;23.252;2023-02-17T08:21:37;95810.81;;;17.30;37.21
20620;BME280;10469;42.720;23.252;2023-02-17T08:24:03;95807.78;;;17.00;35.94
20620;BME280;10469;42.720;23.252;2023-02-17T08:26:29;95807.31;;;16.81;35.49
20620;BME280;10469;42.720;23.252;2023-02-17T08:28:55;95805.84;;;15.17;37.17
20620;BME280;10469;42.720;23.252;2023-02-17T08:31:24;95809.78;;;16.44;36.70
20620;BME280;10469;42.720;23.252;2023-02-17T08:33:50;95804.63;;;16.64;35.71
20620;BME280;10469;42.720;23.252;2023-02-17T08:36:16;95804.25;;;17.26;36.21
20620;BME280;10469;42.720;23.252;2023-02-17T08:38:42;95804.00;;;17.01;35.73
20620;BME280;10469;42.720;23.252;2023-02-17T08:43:44;95805.22;;;16.27;35.88
20620;BME280;10469;42.720;23.252;2023-02-17T08:46:10;95801.19;;;18.56;33.81
20620;BME280;10469;42.720;23.252;2023-02-17T08:48:36;95793.34;;;18.60;33.69
20620;BME280;10469;42.720;23.252;2023-02-17T08:51:03;95797.13;;;18.59;32.87
20620;BME280;10469;42.720;23.252;2023-02-17T08:53:29;95785.53;;;19.83;32.35
20620;BME280;10469;42.720;23.252;2023-02-17T08:55:54;95797.63;;;20.77;30.37
20620;BME280;10469;42.720;23.252;2023-02-17T08:58:20;95785.22;;;21.89;27.69
20620;BME280;10469;42.720;23.252;2023-02-17T09:00:45;95798.81;;;21.10;28.03
20620;BME280;10469;42.720;23.252;2023-02-17T09:03:11;95798.91;;;22.71;28.32
20620;BME280;10469;42.720;23.252;2023-02-17T09:05:36;95792.50;;;21.20;28.89
20620;BME280;10469;42.720;23.252;2023-02-17T09:08:02;95791.13;;;21.22;28.65
20620;BME280;10469;42.720;23.252;2023-02-17T09:10:28;95793.91;;;21.96;27.86
20620;BME280;10469;42.720;23.252;2023-02-17T09:12:53;95779.31;;;20.88;29.12
20620;BME280;10469;42.720;23.252;2023-02-17T09:15:18;95780.88;;;19.98;29.67
20620;BME280;10469;42.720;23.252;2023-02-17T09:17:47;95784.97;;;19.96;29.01
20620;BME280;10469;42.720;23.252;2023-02-17T09:20:12;95781.97;;;19.97;29.33
20620;BME280;10469;42.720;23.252;2023-02-17T09:22:38;95785.53;;;19.83;29.20
20620;BME280;10469;42.720;23.252;2023-02-17T09:25:06;95779.69;;;21.99;27.75
20620;BME280;10469;42.720;23.252;2023-02-17T09:27:32;95775.81;;;20.72;28.93
20620;BME280;10469;42.720;23.252;2023-02-17T09:29:57;95784.97;;;21.51;27.83
20620;BME280;10469;42.720;23.252;2023-02-17T09:32:23;95788.47;;;22.54;26.98
20620;BME280;10469;42.720;23.252;2023-02-17T09:34:48;95782.97;;;20.52;27.93
20620;BME280;10469;42.720;23.252;2023-02-17T09:37:25;95796.25;;;19.06;29.71
20620;BME280;10469;42.720;23.252;2023-02-17T09:39:50;95784.91;;;19.50;30.25
20620;BME280;10469;42.720;23.252;2023-02-17T09:42:23;95789.66;;;18.87;31.09
20620;BME280;10469;42.720;23.252;2023-02-17T09:44:53;95786.06;;;19.95;30.16
20620;BME280;10469;42.720;23.252;2023-02-17T09:47:25;95783.22;;;17.98;31.66
20620;BME280;10469;42.720;23.252;2023-02-17T09:49:56;95771.81;;;19.11;31.41
20620;BME280;10469;42.720;23.252;2023-02-17T09:52:57;95779.41;;;20.62;29.91
20620;BME280;10469;42.720;23.252;2023-02-17T09:55:29;95768.59;;;20.21;29.97
20620;BME280;10469;42.720;23.252;2023-02-17T09:58:26;95767.41;;;21.62;28.43
20620;BME280;10469;42.720;23.252;2023-02-17T10:00:56;95772.41;;;20.10;28.85
20620;BME280;10469;42.720;23.252;2023-02-17T10:08:55;95763.50;;;21.39;28.65
20620;BME280;10469;42.720;23.252;2023-02-17T10:13:55;95759.09;;;19.47;30.03
20620;BME280;10469;42.720;23.252;2023-02-17T10:16:27;95761.56;;;19.79;29.80
20620;BME280;10469;42.720;23.252;2023-02-17T10:19:03;95752.63;;;23.22;26.39
20620;BME280;10469;42.720;23.252;2023-02-17T10:21:34;95750.59;;;22.66;27.77
20620;BME280;10469;42.720;23.252;2023-02-17T10:24:04;95756.97;;;22.03;27.34
20620;BME280;10469;42.720;23.252;2023-02-17T10:32:24;95751.16;;;18.42;30.64
20620;BME280;10469;42.720;23.252;2023-02-17T10:37:47;95738.81;;;20.45;27.53
20620;BME280;10469;42.720;23.252;2023-02-17T10:40:23;95735.13;;;20.11;27.93
20620;BME280;10469;42.720;23.252;2023-02-17T10:42:55;95725.88;;;19.15;29.70
20620;BME280;10469;42.720;23.252;2023-02-17T10:45:27;95725.56;;;18.96;29.60
20620;BME280;10469;42.720;23.252;2023-02-17T10:48:02;95724.69;;;18.17;30.85
20620;BME280;10469;42.720;23.252;2023-02-17T10:50:31;95723.06;;;20.37;28.45
20620;BME280;10469;42.720;23.252;2023-02-17T10:52:56;95718.31;;;19.78;29.03
20620;BME280;10469;42.720;23.252;2023-02-17T10:55:30;95703.56;;;19.94;28.53
20620;BME280;10469;42.720;23.252;2023-02-17T10:58:03;95709.84;;;19.85;29.06
20620;BME280;10469;42.720;23.252;2023-02-17T11:00:30;95704.94;;;19.25;29.42
20620;BME280;10469;42.720;23.252;2023-02-17T11:02:55;95723.91;;;18.95;29.41
20620;BME280;10469;42.720;23.252;2023-02-17T11:05:24;95703.78;;;18.86;30.15
20620;BME280;10469;42.720;23.252;2023-02-17T11:10:58;95715.94;;;18.68;28.14
20620;BME280;10469;42.720;23.252;2023-02-17T11:13:35;95718.13;;;17.34;29.96
20620;BME280;10469;42.720;23.252;2023-02-17T11:16:03;95703.88;;;16.40;31.16
20620;BME280;10469;42.720;23.252;2023-02-17T11:18:34;95704.97;;;17.85;29.60
20620;BME280;10469;42.720;23.252;2023-02-17T11:21:09;95698.22;;;17.55;30.10
20620;BME280;10469;42.720;23.252;2023-02-17T11:23:50;95709.84;;;16.64;32.26
20620;BME280;10469;42.720;23.252;2023-02-17T11:26:21;95702.13;;;18.69;29.77
20620;BME280;10469;42.720;23.252;2023-02-17T11:28:48;95701.69;;;18.30;29.38
20620;BME280;10469;42.720;23.252;2023-02-17T11:31:30;95697.41;;;17.54;30.52
20620;BME280;10469;42.720;23.252;2023-02-17T11:33:56;95702.41;;;18.73;30.13
20620;BME280;10469;42.720;23.252;2023-02-17T11:36:27;95689.13;;;19.94;29.65
20620;BME280;10469;42.720;23.252;2023-02-17T11:38:54;95694.16;;;17.90;30.62
20620;BME280;10469;42.720;23.252;2023-02-17T11:41:20;95690.28;;;17.43;31.79
20620;BME280;10469;42.720;23.252;2023-02-17T11:43:55;95697.59;;;16.84;31.96
20620;BME280;10469;42.720;23.252;2023-02-17T11:46:30;95681.56;;;18.21;31.41
20620;BME280;10469;42.720;23.252;2023-02-17T11:55:03;95683.91;;;18.02;30.49
20620;BME280;10469;42.720;23.252;2023-02-17T11:58:10;95665.31;;;18.31;30.18
20620;BME280;10469;42.720;23.252;2023-02-17T12:04:00;95667.78;;;18.43;29.63
20620;BME280;10469;42.720;23.252;2023-02-17T12:23:48;95651.09;;;15.94;33.71
20620;BME280;10469;42.720;23.252;2023-02-17T12:26:40;95646.13;;;15.86;33.03
20620;BME280;10469;42.720;23.252;2023-02-17T12:34:41;95641.22;;;15.83;33.16
20620;BME280;10469;42.720;23.252;2023-02-17T12:37:17;95621.41;;;15.77;33.90
20620;BME280;10469;42.720;23.252;2023-02-17T12:39:55;95621.97;;;15.62;34.52
20620;BME280;10469;42.720;23.252;2023-02-17T12:42:32;95623.56;;;16.46;33.40
20620;BME280;10469;42.720;23.252;2023-02-17T12:45:06;95617.28;;;16.67;32.98
20620;BME280;10469;42.720;23.252;2023-02-17T12:47:53;95595.13;;;15.55;33.88
20620;BME280;10469;42.720;23.252;2023-02-17T12:50:31;95609.47;;;15.95;33.75
20620;BME280;10469;42.720;23.252;2023-02-17T12:53:00;95612.09;;;15.90;34.28
20620;BME280;10469;42.720;23.252;2023-02-17T12:55:35;95609.94;;;16.95;33.91
20620;BME280;10469;42.720;23.252;2023-02-17T12:58:06;95607.81;;;16.97;32.84
20620;BME280;10469;42.720;23.252;2023-02-17T13:00:45;95608.44;;;16.77;33.09
20620;BME280;10469;42.720;23.252;2023-02-17T13:03:13;95596.88;;;16.87;32.99
20620;BME280;10469;42.720;23.252;2023-02-17T13:05:43;95609.28;;;16.55;32.65
20620;BME280;10469;42.720;23.252;2023-02-17T13:08:21;95600.50;;;15.34;34.33
20620;BME280;10469;42.720;23.252;2023-02-17T13:11:04;95611.31;;;16.16;34.21
20620;BME280;10469;42.720;23.252;2023-02-17T13:13:33;95604.13;;;16.27;33.79
20620;BME280;10469;42.720;23.252;2023-02-17T13:16:05;95612.41;;;15.93;33.96
20620;BME280;10469;42.720;23.252;2023-02-17T13:18:34;95604.81;;;15.51;34.50
20620;BME280;10469;42.720;23.252;2023-02-17T13:24:11;95600.41;;;14.90;36.18
20620;BME280;10469;42.720;23.252;2023-02-17T13:26:39;95602.69;;;14.81;35.70
20620;BME280;10469;42.720;23.252;2023-02-17T13:31:58;95590.97;;;15.48;34.55
20620;BME280;10469;42.720;23.252;2023-02-17T13:34:43;95594.81;;;15.13;34.24
20620;BME280;10469;42.720;23.252;2023-02-17T13:37:25;95574.34;;;15.00;34.13
20620;BME280;10469;42.720;23.252;2023-02-17T13:42:49;95594.19;;;14.72;34.01
20620;BME280;10469;42.720;23.252;2023-02-17T13:47:48;95584.09;;;14.68;35.15
20620;BME280;10469;42.720;23.252;2023-02-17T13:50:30;95593.72;;;14.47;35.76
20620;BME280;10469;42.720;23.252;2023-02-17T13:52:57;95579.53;;;14.40;35.42
20620;BME280;10469;42.720;23.252;2023-02-17T13:55:24;95573.75;;;14.48;33.98
20620;BME280;10469;42.720;23.252;2023-02-17T13:57:55;95577.41;;;14.25;34.55
20620;BME280;10469;42.720;23.252;2023-02-17T14:00:29;95593.13;;;14.45;35.11
20620;BME280;10469;42.720;23.252;2023-02-17T14:03:12;95605.72;;;14.39;35.95
20620;BME280;10469;42.720;23.252;2023-02-17T14:05:43;95591.66;;;14.09;36.32
20620;BME280;10469;42.720;23.252;2023-02-17T14:08:36;95593.72;;;14.18;36.42
20620;BME280;10469;42.720;23.252;2023-02-17T14:11:14;95600.75;;;13.91;37.09
20620;BME280;10469;42.720;23.252;2023-02-17T14:13:42;95591.72;;;13.85;37.24
20620;BME280;10469;42.720;23.252;2023-02-17T14:19:12;95576.38;;;13.86;37.80
20620;BME280;10469;42.720;23.252;2023-02-17T14:21:41;95591.00;;;13.90;37.70